Time;durP1;ratioP1;P1;durP2;ratioP2;P2;SDS_P1;SDS_P2;PMS_P1;PMS_P2;Temp;Humidity;BMP_temperature;BMP_pressure;BME280_temperature;BME280_humidity;BME280_pressure;Samples;Min_cycle;Max_cycle;Signal;HPM_P1;HPM_P2
2023/06/13 00:00:20;;;;;;;4.43;2.95;;;23.10;32.80;;;;;;5001029;28;20058;-49
2023/06/13 00:02:48;;;;;;;8.80;3.22;;;23.10;32.80;;;;;;5001666;28;20058;-49
2023/06/13 00:05:16;;;;;;;4.38;3.50;;;23.00;32.80;;;;;;5002133;28;20058;-49
2023/06/13 00:07:44;;;;;;;5.35;3.78;;;23.00;32.80;;;;;;4995220;28;20498;-51
2023/06/13 00:10:11;;;;;;;5.75;3.42;;;23.00;32.90;;;;;;5002402;28;20418;-47
2023/06/13 00:12:41;;;;;;;5.22;3.53;;;23.00;32.80;;;;;;5000418;28;20058;-49
2023/06/13 00:15:10;;;;;;;5.95;3.80;;;23.00;33.00;;;;;;5002457;28;20080;-52
2023/06/13 00:17:38;;;;;;;5.72;3.50;;;22.90;33.00;;;;;;5001848;28;20062;-49
2023/06/13 00:20:06;;;;;;;6.97;3.40;;;22.90;33.00;;;;;;4998348;28;20418;-53
2023/06/13 00:22:33;;;;;;;10.30;3.22;;;22.90;33.20;;;;;;5000089;28;20509;-51
2023/06/13 00:25:00;;;;;;;5.40;3.35;;;22.90;33.30;;;;;;5001819;28;20061;-48
2023/06/13 00:27:28;;;;;;;7.35;3.72;;;22.90;33.40;;;;;;5000918;28;20520;-54
2023/06/13 00:29:55;;;;;;;7.63;3.63;;;22.80;33.40;;;;;;5003149;28;20058;-49
2023/06/13 00:32:24;;;;;;;5.20;3.80;;;22.80;33.40;;;;;;4999152;28;20976;-53
2023/06/13 00:34:51;;;;;;;4.43;3.15;;;22.80;33.60;;;;;;5000970;28;21236;-53
2023/06/13 00:37:18;;;;;;;4.28;3.20;;;22.80;33.60;;;;;;5000185;28;20057;-54
2023/06/13 00:39:46;;;;;;;4.75;3.40;;;22.80;33.70;;;;;;5002231;28;20061;-52
2023/06/13 00:42:13;;;;;;;5.28;3.70;;;22.80;33.90;;;;;;4995399;28;20508;-52
2023/06/13 00:44:40;;;;;;;4.78;3.22;;;22.70;33.90;;;;;;4999471;28;20054;-50
2023/06/13 00:47:08;;;;;;;4.88;3.20;;;22.70;33.90;;;;;;5001792;28;20058;-53
2023/06/13 00:49:36;;;;;;;5.25;3.35;;;22.70;33.90;;;;;;5001515;28;20061;-51
2023/06/13 00:52:05;;;;;;;7.05;3.75;;;22.70;34.00;;;;;;4994498;28;20478;-54
2023/06/13 00:54:36;;;;;;;7.43;3.50;;;22.70;34.10;;;;;;5000841;28;20096;-50
2023/06/13 00:57:05;;;;;;;4.13;3.30;;;22.70;34.20;;;;;;5001880;28;20054;-51
2023/06/13 00:59:32;;;;;;;5.18;3.55;;;22.60;34.20;;;;;;4999726;28;20042;-52
2023/06/13 01:02:00;;;;;;;6.40;3.67;;;22.60;34.30;;;;;;4999880;28;20061;-48
2023/06/13 01:04:30;;;;;;;5.07;3.30;;;22.60;34.60;;;;;;5001158;23;20057;-48
2023/06/13 01:07:00;;;;;;;5.82;3.47;;;22.60;34.50;;;;;;4979958;28;20047;-48
2023/06/13 01:09:27;;;;;;;7.30;3.35;;;22.60;34.60;;;;;;4981184;28;20054;-52
2023/06/13 01:12:03;;;;;;;7.70;3.50;;;22.50;34.40;;;;;;4977261;28;21009;-51
2023/06/13 01:14:40;;;;;;;8.25;3.75;;;22.50;34.40;;;;;;4981304;28;20544;-51
2023/06/13 01:17:14;;;;;;;4.75;3.30;;;22.50;34.50;;;;;;4982016;28;20519;-49
2023/06/13 01:19:47;;;;;;;4.88;3.30;;;22.40;34.30;;;;;;4981622;28;20062;-49
2023/06/13 01:22:18;;;;;;;4.63;3.40;;;22.40;34.40;;;;;;4978400;28;20058;-52
2023/06/13 01:24:53;;;;;;;6.95;4.10;;;22.40;34.60;;;;;;4977972;28;20046;-51
2023/06/13 01:27:24;;;;;;;5.53;3.75;;;22.30;34.70;;;;;;4982858;28;20065;-52
2023/06/13 01:29:53;;;;;;;6.63;3.75;;;22.30;34.60;;;;;;4980382;28;20065;-49
2023/06/13 01:32:22;;;;;;;4.82;3.15;;;22.30;34.60;;;;;;4980220;28;20054;-53
2023/06/13 01:34:50;;;;;;;4.97;3.40;;;22.30;35.10;;;;;;4977074;28;20058;-50
2023/06/13 01:37:19;;;;;;;5.95;3.50;;;22.20;34.50;;;;;;4976245;28;20050;-50
2023/06/13 01:39:46;;;;;;;4.95;3.60;;;22.20;34.60;;;;;;4979360;28;20058;-53
2023/06/13 01:42:13;;;;;;;5.57;3.30;;;22.10;34.70;;;;;;4977829;28;20046;-50
2023/06/13 01:44:42;;;;;;;4.95;3.60;;;22.10;34.90;;;;;;4981556;28;20054;-50
2023/06/13 01:47:20;;;;;;;5.18;3.55;;;22.10;35.00;;;;;;4979732;28;20486;-51
2023/06/13 01:49:54;;;;;;;5.28;3.75;;;22.10;35.10;;;;;;4982196;28;20410;-49
2023/06/13 01:52:30;;;;;;;5.00;3.38;;;22.00;35.10;;;;;;4974825;28;20498;-53
2023/06/13 01:55:03;;;;;;;4.63;3.50;;;22.00;35.20;;;;;;4977348;28;20051;-51
2023/06/13 01:57:37;;;;;;;6.07;3.28;;;22.00;35.20;;;;;;4982153;28;20070;-51
2023/06/13 02:00:09;;;;;;;7.28;3.78;;;22.00;35.30;;;;;;4979968;28;20058;-47
2023/06/13 02:02:38;;;;;;;4.85;3.35;;;21.90;35.30;;;;;;4979287;28;20501;-52
2023/06/13 02:05:06;;;;;;;5.45;3.33;;;21.90;35.30;;;;;;4974883;28;20054;-52
2023/06/13 02:07:36;;;;;;;4.40;3.58;;;21.90;35.50;;;;;;4978814;28;20134;-51
2023/06/13 02:10:05;;;;;;;4.47;3.22;;;21.90;35.50;;;;;;4977441;28;20058;-52
2023/06/13 02:12:32;;;;;;;4.18;3.53;;;21.90;35.60;;;;;;4974673;28;20067;-51
2023/06/13 02:15:00;;;;;;;5.93;3.60;;;21.80;35.70;;;;;;4979936;28;20069;-50
2023/06/13 02:17:29;;;;;;;5.65;3.50;;;21.80;35.80;;;;;;4975369;28;20513;-48
2023/06/13 02:19:57;;;;;;;3.92;3.20;;;21.80;36.40;;;;;;4979757;28;21855;-50
2023/06/13 02:22:24;;;;;;;4.45;3.22;;;21.70;35.80;;;;;;4979787;28;20050;-52
2023/06/13 02:24:51;;;;;;;6.40;3.53;;;21.70;35.80;;;;;;4979965;28;20053;-46
2023/06/13 02:27:18;;;;;;;4.03;3.53;;;21.70;35.80;;;;;;4979001;28;20066;-49
2023/06/13 02:29:46;;;;;;;5.03;3.50;;;21.60;35.90;;;;;;4978476;28;20061;-48
2023/06/13 02:32:13;;;;;;;5.20;3.45;;;21.60;36.00;;;;;;4978926;28;20046;-49
2023/06/13 02:34:42;;;;;;;7.47;3.53;;;21.60;36.20;;;;;;4980171;28;20054;-48
2023/06/13 02:37:09;;;;;;;7.20;3.45;;;21.60;36.40;;;;;;4976566;28;20057;-50
2023/06/13 02:39:36;;;;;;;5.28;3.75;;;21.50;36.30;;;;;;4980643;28;20058;-47
2023/06/13 02:42:05;;;;;;;5.60;3.70;;;21.50;36.30;;;;;;4978399;28;20050;-49
2023/06/13 02:44:32;;;;;;;4.95;3.88;;;21.50;36.40;;;;;;4979164;28;20498;-49
2023/06/13 02:46:59;;;;;;;5.45;3.78;;;21.50;36.50;;;;;;4979104;28;20138;-46
2023/06/13 02:49:27;;;;;;;4.75;3.45;;;21.40;36.60;;;;;;4979188;28;20410;-46
2023/06/13 02:51:55;;;;;;;6.28;4.25;;;21.40;36.70;;;;;;4977877;28;20057;-47
2023/06/13 02:54:22;;;;;;;6.72;3.70;;;21.40;36.70;;;;;;4975665;28;20122;-49
2023/06/13 02:56:50;;;;;;;6.05;3.53;;;21.40;36.80;;;;;;4974334;28;20516;-50
2023/06/13 02:59:19;;;;;;;6.57;3.60;;;21.30;36.80;;;;;;4980893;28;20050;-50
2023/06/13 03:01:47;;;;;;;5.07;3.47;;;21.30;36.80;;;;;;4975657;28;20073;-45
2023/06/13 03:04:18;;;;;;;5.80;3.63;;;21.30;36.80;;;;;;4978161;28;20055;-48
2023/06/13 03:06:46;;;;;;;6.28;3.65;;;21.30;36.90;;;;;;4980900;28;20069;-49
2023/06/13 03:09:14;;;;;;;4.55;3.55;;;21.30;37.00;;;;;;4980667;28;20066;-51
2023/06/13 03:11:42;;;;;;;5.80;3.70;;;21.20;36.90;;;;;;4975882;28;20049;-46
2023/06/13 03:14:09;;;;;;;6.70;4.05;;;21.30;37.00;;;;;;4983780;28;20061;-49
2023/06/13 03:16:36;;;;;;;4.78;3.28;;;21.20;37.00;;;;;;4982103;28;20054;-49
2023/06/13 03:19:03;;;;;;;5.65;4.00;;;21.20;37.10;;;;;;4985088;28;20512;-49
2023/06/13 03:21:31;;;;;;;7.13;3.55;;;21.20;37.10;;;;;;4978507;28;20627;-49
2023/06/13 03:23:58;;;;;;;5.47;3.67;;;21.10;37.10;;;;;;4983540;28;20065;-50
2023/06/13 03:26:28;;;;;;;8.05;3.72;;;21.10;37.20;;;;;;4982802;28;20058;-49
2023/06/13 03:28:55;;;;;;;4.47;3.03;;;21.10;37.30;;;;;;4984130;28;20054;-47
2023/06/13 03:31:22;;;;;;;5.97;3.95;;;21.10;37.30;;;;;;4979589;28;20064;-46
2023/06/13 03:33:50;;;;;;;7.50;3.92;;;21.10;37.40;;;;;;4979990;28;20062;-48
2023/06/13 03:36:17;;;;;;;6.53;3.60;;;21.10;37.50;;;;;;4980579;28;20422;-46
2023/06/13 03:38:45;;;;;;;5.53;3.95;;;21.00;37.50;;;;;;4983431;28;20501;-47
2023/06/13 03:41:12;;;;;;;7.35;3.75;;;21.00;37.60;;;;;;4982352;28;20055;-48
2023/06/13 03:43:41;;;;;;;5.03;3.75;;;21.00;37.60;;;;;;4978685;28;20061;-48
2023/06/13 03:46:08;;;;;;;5.68;3.63;;;21.00;37.60;;;;;;4984328;28;20073;-47
2023/06/13 03:48:36;;;;;;;5.15;3.45;;;20.90;37.60;;;;;;4984822;28;20510;-47
2023/06/13 03:51:03;;;;;;;5.53;3.63;;;20.90;37.60;;;;;;4984345;28;20062;-48
2023/06/13 03:53:30;;;;;;;4.63;3.38;;;20.90;37.70;;;;;;4982400;28;20061;-45
2023/06/13 03:55:57;;;;;;;5.13;3.05;;;20.90;37.80;;;;;;4984380;28;20054;-47
2023/06/13 03:58:26;;;;;;;6.07;3.90;;;20.90;37.90;;;;;;4983967;28;20502;-49
2023/06/13 04:00:55;;;;;;;4.82;3.78;;;20.80;38.00;;;;;;4985047;28;20084;-47
2023/06/13 04:03:22;;;;;;;6.05;4.03;;;20.80;38.00;;;;;;4983565;28;20506;-45
2023/06/13 04:05:49;;;;;;;5.32;3.50;;;20.80;38.10;;;;;;4984187;28;20058;-47
2023/06/13 04:08:17;;;;;;;6.88;3.78;;;20.80;38.20;;;;;;4982805;28;20054;-47
2023/06/13 04:10:44;;;;;;;5.97;3.53;;;20.80;38.20;;;;;;4981356;28;20061;-47
2023/06/13 04:13:11;;;;;;;16.63;4.20;;;20.80;38.40;;;;;;4982949;28;20047;-46
2023/06/13 04:15:38;;;;;;;5.53;3.78;;;20.70;38.40;;;;;;4980473;28;20058;-46
2023/06/13 04:18:09;;;;;;;5.82;3.88;;;20.70;38.60;;;;;;4978139;28;20058;-46
2023/06/13 04:20:36;;;;;;;7.18;3.80;;;20.70;38.70;;;;;;4979354;28;20061;-45
2023/06/13 04:23:04;;;;;;;7.20;3.90;;;20.70;38.80;;;;;;4974911;28;20051;-45
2023/06/13 04:25:32;;;;;;;7.43;3.90;;;20.70;38.80;;;;;;4981006;28;20536;-50
2023/06/13 04:28:00;;;;;;;4.05;3.63;;;20.70;38.90;;;;;;4982465;28;20057;-46
2023/06/13 04:30:28;;;;;;;7.70;4.25;;;20.60;39.10;;;;;;4981973;28;20054;-44
2023/06/13 04:32:56;;;;;;;7.30;4.18;;;20.60;39.20;;;;;;4980895;28;20486;-48
2023/06/13 04:35:26;;;;;;;6.93;3.95;;;20.60;39.30;;;;;;4983236;28;20507;-44
2023/06/13 04:37:56;;;;;;;4.78;3.65;;;20.70;39.50;;;;;;4981003;28;20046;-47
2023/06/13 04:40:31;;;;;;;11.38;4.03;;;20.70;39.40;;;;;;4982121;28;20066;-49
2023/06/13 04:42:58;;;;;;;5.53;3.40;;;20.70;39.60;;;;;;4984703;28;20505;-48
2023/06/13 04:45:25;;;;;;;6.85;3.80;;;20.60;39.50;;;;;;4981924;28;20058;-49
2023/06/13 04:47:57;;;;;;;5.25;3.38;;;20.60;39.70;;;;;;4979757;28;20065;-44
2023/06/13 04:50:25;;;;;;;5.60;3.50;;;20.60;39.80;;;;;;4983037;28;20058;-46
2023/06/13 04:52:53;;;;;;;8.98;4.30;;;20.60;39.90;;;;;;4976708;28;20605;-50
2023/06/13 04:55:21;;;;;;;4.65;3.38;;;20.60;40.00;;;;;;4981217;28;20061;-46
2023/06/13 04:57:48;;;;;;;5.18;3.70;;;20.60;40.20;;;;;;4983273;28;20462;-43
2023/06/13 05:00:16;;;;;;;5.30;3.53;;;20.60;40.20;;;;;;4981926;28;20054;-45
2023/06/13 05:02:45;;;;;;;5.25;3.70;;;20.60;40.30;;;;;;4980330;28;20386;-47
2023/06/13 05:05:16;;;;;;;5.85;3.85;;;20.60;40.40;;;;;;4978851;28;20514;-47
2023/06/13 05:07:44;;;;;;;4.75;3.50;;;20.60;40.40;;;;;;4981904;28;20062;-48
2023/06/13 05:10:12;;;;;;;7.78;4.38;;;20.60;40.60;;;;;;4981536;28;20522;-47
2023/06/13 05:12:40;;;;;;;14.77;4.22;;;20.60;40.70;;;;;;4981623;28;20057;-48
2023/06/13 05:15:07;;;;;;;4.55;3.13;;;20.60;40.80;;;;;;4981840;28;20065;-45
2023/06/13 05:17:37;;;;;;;5.75;3.53;;;20.60;40.70;;;;;;4976103;28;20046;-50
2023/06/13 05:20:06;;;;;;;6.20;3.95;;;20.60;40.80;;;;;;4981486;28;20113;-49
2023/06/13 05:22:33;;;;;;;6.22;3.50;;;20.60;40.90;;;;;;4976966;28;20069;-49
2023/06/13 05:25:02;;;;;;;7.05;3.47;;;20.60;40.70;;;;;;4979894;28;20065;-45
2023/06/13 05:27:29;;;;;;;5.65;3.83;;;20.60;40.70;;;;;;4982693;28;20057;-51
2023/06/13 05:29:57;;;;;;;4.50;3.45;;;20.70;40.80;;;;;;4981614;28;20046;-45
2023/06/13 05:32:24;;;;;;;4.63;3.65;;;20.70;40.80;;;;;;4981065;28;20054;-50
2023/06/13 05:34:51;;;;;;;7.30;3.45;;;20.70;40.80;;;;;;4978876;28;20105;-43
2023/06/13 05:37:19;;;;;;;4.68;3.20;;;20.80;41.10;;;;;;4979688;28;20601;-48
2023/06/13 05:39:46;;;;;;;5.43;3.83;;;20.80;41.10;;;;;;4979785;28;20516;-49
2023/06/13 05:42:15;;;;;;;5.10;3.40;;;20.80;41.00;;;;;;4981840;28;20490;-50
2023/06/13 05:44:42;;;;;;;6.75;3.85;;;20.80;40.90;;;;;;4981503;28;20054;-48
2023/06/13 05:47:12;;;;;;;5.50;3.80;;;20.80;40.90;;;;;;4976846;28;20494;-46
2023/06/13 05:49:39;;;;;;;6.80;4.10;;;20.90;41.10;;;;;;4974227;28;20061;-48
2023/06/13 05:52:07;;;;;;;6.25;4.10;;;20.90;41.20;;;;;;4976499;28;20062;-49
2023/06/13 05:54:35;;;;;;;6.15;3.75;;;21.00;41.20;;;;;;4974240;28;20065;-48
2023/06/13 05:57:02;;;;;;;8.65;3.80;;;21.00;41.20;;;;;;4978361;28;20054;-50
2023/06/13 05:59:30;;;;;;;5.57;3.30;;;21.00;41.10;;;;;;4976183;28;20047;-47
2023/06/13 06:01:58;;;;;;;4.72;3.97;;;21.10;41.30;;;;;;4974010;28;20054;-48
2023/06/13 06:04:25;;;;;;;15.48;9.27;;;21.10;41.30;;;;;;4973033;28;20050;-49
2023/06/13 06:06:52;;;;;;;7.50;4.72;;;21.10;41.30;;;;;;4977730;28;20061;-49
2023/06/13 06:09:19;;;;;;;5.68;3.60;;;21.20;41.20;;;;;;4973393;28;20054;-52
2023/06/13 06:11:47;;;;;;;6.22;3.80;;;21.20;41.20;;;;;;4978940;28;20062;-49
2023/06/13 06:14:14;;;;;;;7.28;3.60;;;21.30;41.30;;;;;;4977795;28;20410;-48
2023/06/13 06:16:43;;;;;;;6.80;3.80;;;21.30;41.10;;;;;;4978767;28;20058;-52
2023/06/13 06:19:10;;;;;;;8.25;3.95;;;21.40;41.10;;;;;;4976723;28;20061;-47
2023/06/13 06:21:37;;;;;;;7.07;3.88;;;21.40;41.20;;;;;;4978583;28;20058;-50
2023/06/13 06:24:06;;;;;;;4.90;3.60;;;21.40;41.30;;;;;;4977663;28;20077;-50
2023/06/13 06:26:34;;;;;;;8.27;3.72;;;21.50;41.10;;;;;;4980365;28;20055;-47
2023/06/13 06:29:01;;;;;;;7.22;4.30;;;21.60;41.00;;;;;;4975335;28;20070;-51
2023/06/13 06:31:28;;;;;;;7.45;3.97;;;21.60;41.00;;;;;;4979941;28;20418;-51
2023/06/13 06:33:57;;;;;;;6.97;4.38;;;21.70;40.80;;;;;;4982439;28;20047;-49
2023/06/13 06:36:24;;;;;;;5.85;4.07;;;21.70;40.80;;;;;;4982694;28;20569;-50
2023/06/13 06:38:51;;;;;;;8.65;3.90;;;21.80;40.70;;;;;;4978277;28;20065;-49
2023/06/13 06:41:19;;;;;;;5.45;4.03;;;21.80;40.70;;;;;;4982307;28;20050;-50
2023/06/13 06:43:46;;;;;;;8.48;3.80;;;21.90;40.50;;;;;;4982613;28;20054;-48
2023/06/13 06:46:13;;;;;;;7.53;4.13;;;21.90;40.40;;;;;;4977120;28;20062;-51
2023/06/13 06:48:40;;;;;;;6.13;4.07;;;22.00;40.30;;;;;;4985445;28;21191;-47
2023/06/13 06:51:09;;;;;;;6.40;3.70;;;22.00;40.30;;;;;;4980703;28;20635;-47
2023/06/13 06:53:36;;;;;;;5.18;3.40;;;22.10;40.60;;;;;;4981566;28;20513;-50
2023/06/13 06:56:04;;;;;;;5.07;3.33;;;22.20;40.50;;;;;;4985425;28;20046;-48
2023/06/13 06:58:31;;;;;;;7.68;3.42;;;22.20;40.10;;;;;;4982633;28;20050;-50
2023/06/13 07:01:01;;;;;;;11.43;3.85;;;22.30;40.10;;;;;;4983827;28;20058;-48
2023/06/13 07:03:28;;;;;;;9.40;4.15;;;22.30;40.00;;;;;;4982178;28;20050;-47
2023/06/13 07:05:55;;;;;;;7.47;3.33;;;22.40;39.90;;;;;;4983369;28;20352;-49
2023/06/13 07:08:24;;;;;;;4.63;3.58;;;22.50;40.00;;;;;;4981584;28;20057;-49
2023/06/13 07:10:52;;;;;;;5.28;3.35;;;22.50;40.00;;;;;;4979828;28;20049;-46
2023/06/13 07:13:19;;;;;;;10.25;3.72;;;22.50;40.00;;;;;;4982144;28;20055;-47
2023/06/13 07:15:46;;;;;;;5.53;3.53;;;22.60;39.60;;;;;;4984044;28;20410;-49
2023/06/13 07:18:13;;;;;;;4.43;3.15;;;22.70;39.70;;;;;;4982835;28;20050;-50
2023/06/13 07:20:40;;;;;;;5.35;3.35;;;22.70;39.60;;;;;;4983329;28;20430;-59
2023/06/13 07:23:08;;;;;;;7.47;3.50;;;22.80;39.60;;;;;;4975433;28;20076;-50
2023/06/13 07:25:36;;;;;;;6.90;3.63;;;22.90;39.50;;;;;;4984983;28;20058;-53
2023/06/13 07:28:04;;;;;;;6.65;3.35;;;22.90;39.30;;;;;;4983299;28;20973;-49
2023/06/13 07:30:32;;;;;;;7.80;3.97;;;22.90;39.50;;;;;;4980629;28;20065;-50
2023/06/13 07:33:00;;;;;;;6.53;3.20;;;23.00;39.50;;;;;;4980030;28;20606;-51
2023/06/13 07:35:27;;;;;;;10.38;3.80;;;23.10;39.50;;;;;;4984441;28;20409;-50
2023/06/13 07:37:54;;;;;;;7.53;3.50;;;23.10;39.50;;;;;;4979429;28;20065;-52
2023/06/13 07:40:23;;;;;;;10.23;3.40;;;23.20;39.40;;;;;;4983463;28;20054;-49
2023/06/13 07:42:54;;;;;;;5.82;3.83;;;23.30;39.30;;;;;;4983559;28;20061;-52
2023/06/13 07:45:22;;;;;;;4.45;3.30;;;23.30;38.90;;;;;;4980401;28;20065;-50
2023/06/13 07:47:50;;;;;;;3.53;2.80;;;23.40;38.70;;;;;;4983713;28;20050;-53
2023/06/13 07:50:20;;;;;;;7.20;3.30;;;23.50;38.70;;;;;;4982003;28;20054;-51
2023/06/13 07:52:48;;;;;;;11.00;3.72;;;23.50;38.40;;;;;;4981455;28;20073;-50
2023/06/13 07:55:15;;;;;;;7.47;3.60;;;23.60;38.30;;;;;;4981832;28;20054;-52
2023/06/13 07:57:42;;;;;;;5.88;3.45;;;23.60;38.00;;;;;;4981229;28;20066;-50
2023/06/13 08:00:16;;;;;;;4.55;3.03;;;23.70;37.90;;;;;;4980153;28;20061;-51
2023/06/13 08:02:43;;;;;;;5.45;3.08;;;23.80;37.70;;;;;;4980164;28;20065;-49
2023/06/13 08:05:11;;;;;;;7.35;3.08;;;23.80;37.30;;;;;;4982182;28;20498;-53
2023/06/13 08:07:38;;;;;;;8.48;3.13;;;23.90;37.10;;;;;;4983646;28;20054;-46
2023/06/13 08:10:06;;;;;;;5.30;3.10;;;23.90;36.80;;;;;;4978556;28;20054;-46
2023/06/13 08:12:33;;;;;;;4.30;3.35;;;24.00;36.90;;;;;;4981101;28;20065;-51
2023/06/13 08:15:01;;;;;;;8.38;3.40;;;24.00;36.70;;;;;;4983705;28;20486;-49
2023/06/13 08:17:30;;;;;;;3.78;3.00;;;24.10;36.60;;;;;;4982947;28;20490;-51
2023/06/13 08:19:57;;;;;;;4.70;3.13;;;24.10;36.40;;;;;;4981398;28;20057;-48
2023/06/13 08:22:27;;;;;;;6.05;3.45;;;24.20;36.50;;;;;;4979833;28;20582;-52
2023/06/13 08:24:54;;;;;;;5.47;3.10;;;24.20;36.20;;;;;;4984028;28;20046;-47
2023/06/13 08:27:21;;;;;;;10.10;3.15;;;24.20;36.20;;;;;;4983704;28;20050;-51
2023/06/13 08:29:50;;;;;;;8.07;3.28;;;24.30;36.10;;;;;;4982985;28;20655;-51
2023/06/13 08:32:17;;;;;;;5.35;2.97;;;24.40;36.20;;;;;;4979777;28;20054;-48
2023/06/13 08:34:45;;;;;;;7.65;3.40;;;24.40;36.00;;;;;;4982079;28;20061;-49
2023/06/13 08:37:13;;;;;;;5.07;3.65;;;24.40;36.00;;;;;;4982096;28;20058;-51
2023/06/13 08:39:40;;;;;;;10.98;3.65;;;24.50;35.70;;;;;;4981397;28;20050;-47
2023/06/13 08:42:08;;;;;;;16.05;3.80;;;24.50;35.60;;;;;;4982102;28;20414;-51
2023/06/13 08:44:36;;;;;;;4.93;2.90;;;24.60;35.40;;;;;;4982090;28;20502;-47
2023/06/13 08:47:04;;;;;;;4.47;3.17;;;24.70;35.30;;;;;;4980140;28;20065;-58
2023/06/13 08:49:32;;;;;;;7.25;3.38;;;24.70;35.50;;;;;;4984476;28;20054;-48
2023/06/13 08:52:03;;;;;;;7.68;3.22;;;24.70;35.50;;;;;;4980196;28;20065;-56
2023/06/13 08:54:35;;;;;;;55.13;6.28;;;24.80;35.00;;;;;;4982576;28;20059;-56
2023/06/13 08:57:05;;;;;;;19.17;4.05;;;24.80;34.70;;;;;;4980967;28;20525;-48
2023/06/13 08:59:37;;;;;;;8.82;3.63;;;24.90;34.90;;;;;;4982061;28;20490;-50
2023/06/13 09:02:06;;;;;;;8.35;3.60;;;24.90;34.60;;;;;;4979471;28;20136;-52
2023/06/13 09:04:35;;;;;;;3.80;2.80;;;25.00;34.70;;;;;;4978756;28;20521;-50
2023/06/13 09:07:05;;;;;;;5.72;2.90;;;25.00;34.40;;;;;;4979308;28;20046;-49
2023/06/13 09:09:33;;;;;;;5.18;3.00;;;25.00;34.10;;;;;;4976022;28;20494;-51
2023/06/13 09:12:03;;;;;;;7.55;3.35;;;25.10;34.10;;;;;;4978984;28;20134;-49
2023/06/13 09:14:30;;;;;;;5.85;3.28;;;25.10;34.30;;;;;;4975635;28;20065;-54
2023/06/13 09:16:57;;;;;;;10.35;3.60;;;25.20;34.10;;;;;;4977999;28;20552;-56
2023/06/13 09:19:25;;;;;;;3.90;2.92;;;25.20;34.00;;;;;;4979429;28;20050;-59
2023/06/13 09:21:52;;;;;;;3.83;3.17;;;25.20;33.80;;;;;;4974871;28;20505;-52
2023/06/13 09:24:20;;;;;;;3.75;3.28;;;25.30;33.30;;;;;;4979572;28;20051;-51
2023/06/13 09:26:48;;;;;;;5.93;3.47;;;25.30;33.60;;;;;;4976063;28;20069;-49
2023/06/13 09:29:15;;;;;;;7.03;3.20;;;25.30;33.60;;;;;;4978686;28;20514;-55
2023/06/13 09:31:43;;;;;;;3.78;3.10;;;25.30;33.20;;;;;;4980905;28;20995;-52
2023/06/13 09:34:15;;;;;;;9.40;3.60;;;25.40;32.80;;;;;;4977794;28;20054;-48
2023/06/13 09:36:43;;;;;;;6.25;3.33;;;25.40;32.50;;;;;;4977068;28;20054;-51
2023/06/13 09:39:11;;;;;;;3.90;3.15;;;25.40;32.30;;;;;;4978494;28;20418;-53
2023/06/13 09:41:42;;;;;;;6.18;3.35;;;25.40;32.30;;;;;;4978700;28;20058;-54
2023/06/13 09:44:10;;;;;;;5.22;3.60;;;25.50;32.50;;;;;;4979559;28;20057;-53
2023/06/13 09:46:38;;;;;;;7.13;3.08;;;25.50;32.00;;;;;;4978689;28;20069;-49
2023/06/13 09:49:06;;;;;;;3.45;3.15;;;25.50;32.40;;;;;;4976417;28;20058;-52
2023/06/13 09:51:33;;;;;;;6.75;3.28;;;25.60;32.60;;;;;;4976409;28;20069;-56
2023/06/13 09:54:01;;;;;;;6.03;3.53;;;25.60;32.70;;;;;;4977896;28;20410;-53
2023/06/13 09:56:28;;;;;;;6.53;3.33;;;25.60;32.30;;;;;;4977436;28;21345;-52
2023/06/13 09:58:57;;;;;;;6.38;3.40;;;25.60;31.60;;;;;;4980203;28;20487;-53
2023/06/13 10:01:24;;;;;;;6.47;2.78;;;25.70;32.00;;;;;;4979335;28;20061;-46
2023/06/13 10:03:51;;;;;;;5.85;3.15;;;25.70;32.30;;;;;;4977471;28;20058;-53
2023/06/13 10:06:19;;;;;;;9.35;3.35;;;25.70;32.40;;;;;;4976879;28;20050;-54
2023/06/13 10:08:46;;;;;;;4.65;3.45;;;25.80;32.30;;;;;;4974670;28;20051;-52
2023/06/13 10:11:16;;;;;;;4.53;3.30;;;25.80;32.30;;;;;;4977878;28;20050;-49
2023/06/13 10:13:51;;;;;;;5.75;3.40;;;25.80;32.00;;;;;;4978166;28;20054;-47
2023/06/13 10:16:22;;;;;;;9.18;3.25;;;25.90;31.60;;;;;;4973558;28;20061;-51
2023/06/13 10:18:52;;;;;;;4.28;3.45;;;25.90;32.50;;;;;;4978333;28;20054;-54
2023/06/13 10:21:22;;;;;;;5.85;3.60;;;26.00;32.20;;;;;;4976094;28;20265;-47
2023/06/13 10:23:51;;;;;;;9.77;3.95;;;26.00;32.00;;;;;;4970974;28;20059;-51
2023/06/13 10:26:27;;;;;;;5.47;3.28;;;26.00;31.60;;;;;;4974013;28;20050;-53
2023/06/13 10:29:20;;;;;;;8.00;3.63;;;26.00;31.70;;;;;;4977204;28;20502;-52
2023/06/13 10:32:00;;;;;;;7.35;3.70;;;26.10;31.10;;;;;;4977867;28;20058;-49
2023/06/13 10:34:42;;;;;;;4.05;3.13;;;26.10;30.50;;;;;;4978384;28;20065;-49
2023/06/13 10:37:38;;;;;;;5.10;3.45;;;26.10;30.40;;;;;;4973584;28;20409;-50
2023/06/13 10:40:28;;;;;;;5.60;3.38;;;26.10;29.90;;;;;;4970793;28;20058;-52
2023/06/13 10:43:05;;;;;;;4.80;3.55;;;26.20;30.50;;;;;;4976252;28;20418;-52
2023/06/13 10:45:33;;;;;;;4.63;3.72;;;26.20;30.50;;;;;;4978589;28;20046;-54
2023/06/13 10:48:05;;;;;;;5.95;3.67;;;26.20;30.60;;;;;;4978861;28;20417;-51
2023/06/13 10:50:38;;;;;;;8.32;3.80;;;26.20;29.90;;;;;;4975734;28;20061;-57
2023/06/13 10:53:05;;;;;;;7.43;4.07;;;26.30;29.90;;;;;;4977750;28;20486;-52
2023/06/13 10:55:37;;;;;;;9.30;3.78;;;26.30;30.00;;;;;;4976224;28;20046;-51
2023/06/13 10:58:11;;;;;;;5.78;3.58;;;26.30;30.00;;;;;;4980284;28;20506;-49
2023/06/13 11:00:40;;;;;;;;;;;26.30;29.70;;;;;;4981875;28;20085;-46
2023/06/13 11:03:10;;;;;;;4.78;3.10;;;26.40;30.10;;;;;;4979642;28;20397;-50
2023/06/13 11:05:48;;;;;;;12.68;5.10;;;26.30;29.40;;;;;;4980285;28;20062;-45
2023/06/13 11:08:16;;;;;;;5.47;3.72;;;26.40;29.50;;;;;;4977663;28;20517;-47
2023/06/13 11:10:45;;;;;;;8.07;3.65;;;26.40;29.30;;;;;;4978367;28;20061;-50
2023/06/13 11:13:20;;;;;;;8.10;3.30;;;26.40;29.30;;;;;;4976704;28;20414;-53
2023/06/13 11:15:50;;;;;;;5.18;3.35;;;26.30;29.10;;;;;;4976707;28;20513;-54
2023/06/13 11:18:34;;;;;;;6.50;3.55;;;26.40;29.70;;;;;;4973793;28;20053;-55
2023/06/13 11:21:03;;;;;;;6.90;3.63;;;26.40;29.40;;;;;;4980271;28;20058;-50
2023/06/13 11:23:48;;;;;;;7.72;4.47;;;26.40;29.50;;;;;;4979094;28;20069;-52
2023/06/13 11:26:22;;;;;;;15.20;4.65;;;26.40;29.70;;;;;;4977353;28;20042;-52
2023/06/13 11:28:51;;;;;;;9.57;4.70;;;26.50;29.40;;;;;;4981196;28;20525;-52
2023/06/13 11:31:19;;;;;;;7.43;4.22;;;26.50;29.70;;;;;;4979169;28;20061;-53
2023/06/13 11:33:49;;;;;;;5.93;3.10;;;26.50;29.70;;;;;;4978779;28;20064;-55
2023/06/13 11:36:18;;;;;;;4.05;3.10;;;26.50;29.60;;;;;;4981016;28;20406;-55
2023/06/13 11:38:52;;;;;;;4.68;3.20;;;26.60;29.60;;;;;;4980691;28;20423;-53
2023/06/13 11:41:19;;;;;;;9.23;3.65;;;26.60;29.90;;;;;;4980754;28;20058;-50
2023/06/13 11:43:47;;;;;;;5.90;3.55;;;26.60;29.70;;;;;;4979296;28;20054;-55
2023/06/13 11:46:15;;;;;;;4.80;3.38;;;26.60;29.60;;;;;;4980152;28;20517;-55
2023/06/13 11:48:42;;;;;;;8.18;3.78;;;26.70;29.60;;;;;;4979047;28;20062;-52
2023/06/13 11:51:12;;;;;;;7.30;4.03;;;26.70;29.80;;;;;;4978375;28;20498;-54
2023/06/13 11:53:53;;;;;;;10.35;3.65;;;26.70;29.70;;;;;;4976231;28;20050;-50
2023/06/13 11:56:22;;;;;;;3.95;3.35;;;26.80;29.70;;;;;;4981760;28;20438;-56
2023/06/13 11:58:50;;;;;;;5.63;3.60;;;26.80;29.50;;;;;;4980154;28;20057;-53
2023/06/13 12:01:20;;;;;;;5.15;3.42;;;26.80;29.40;;;;;;4982028;28;20054;-52
2023/06/13 12:03:48;;;;;;;4.38;3.05;;;26.80;29.60;;;;;;4981554;28;20142;-52
2023/06/13 12:06:18;;;;;;;4.35;3.33;;;26.90;29.70;;;;;;4979745;28;20582;-52
2023/06/13 12:08:47;;;;;;;8.38;3.72;;;26.90;29.90;;;;;;4978938;28;20050;-48
2023/06/13 12:11:16;;;;;;;6.20;3.70;;;26.90;29.80;;;;;;4981611;28;20073;-50
2023/06/13 12:13:53;;;;;;;6.53;3.35;;;26.90;30.00;;;;;;4978730;28;20054;-51
2023/06/13 12:16:23;;;;;;;5.88;3.53;;;27.00;28.70;;;;;;4980975;28;20486;-56
2023/06/13 12:18:53;;;;;;;4.78;3.63;;;27.00;28.70;;;;;;4978374;28;20046;-54
2023/06/13 12:21:23;;;;;;;4.88;3.55;;;27.00;28.60;;;;;;4979164;28;20951;-52
2023/06/13 12:23:50;;;;;;;10.65;4.78;;;27.00;28.50;;;;;;4972504;28;20066;-51
2023/06/13 12:26:18;;;;;;;5.35;3.80;;;27.00;28.70;;;;;;4977885;28;20688;-49
2023/06/13 12:28:47;;;;;;;6.25;3.58;;;27.00;28.50;;;;;;4982427;28;20074;-54
2023/06/13 12:31:15;;;;;;;5.75;3.60;;;27.00;28.40;;;;;;4979432;28;20065;-53
2023/06/13 12:33:42;;;;;;;4.47;3.53;;;27.10;28.60;;;;;;4977259;28;20054;-52
2023/06/13 12:36:11;;;;;;;6.57;3.20;;;27.10;28.50;;;;;;4976365;28;20391;-54
2023/06/13 12:38:41;;;;;;;6.60;3.65;;;27.10;28.50;;;;;;4979739;28;20054;-48
2023/06/13 12:41:15;;;;;;;6.28;3.40;;;27.10;28.70;;;;;;4982803;28;20054;-54
2023/06/13 12:43:45;;;;;;;6.32;3.97;;;27.10;28.60;;;;;;4972570;28;20058;-50
2023/06/13 12:46:13;;;;;;;6.25;3.25;;;27.10;28.60;;;;;;4980836;28;20051;-54
2023/06/13 12:48:40;;;;;;;6.43;3.65;;;27.20;28.50;;;;;;4977025;28;20062;-56
2023/06/13 12:51:08;;;;;;;5.10;3.63;;;27.20;28.70;;;;;;4978818;28;20486;-56
2023/06/13 12:53:35;;;;;;;7.72;3.40;;;27.20;28.30;;;;;;4976201;28;20639;-53